Time,TemperatureF,DewpointF,PressureIn,WindDirection,WindDirectionDegrees,WindSpeedMPH,WindSpeedGustMPH,Humidity,HourlyPrecipIn,Conditions,Clouds,dailyrainin,SoftwareType,DateUTC
2013-01-18 00:01:00,32.1,31.4,30.36,NE,40,0.0,0.0,97,0.00,,,1.17,VWS V14.01,2013-01-18 05:01:00,
2013-01-18 00:04:00,32.1,31.4,30.36,NE,40,0.0,0.0,97,0.00,,,1.17,VWS V14.01,2013-01-18 05:04:00,
2013-01-18 00:07:00,32.2,31.5,30.37,NNE,24,0.0,0.0,97,0.00,,,0.00,VWS V14.01,2013-01-18 05:07:00,
2013-01-18 00:08:00,32.1,31.4,30.37,NNE,24,0.0,0.0,97,0.00,,,0.00,VWS V14.01,2013-01-18 05:08:00,
2013-01-18 00:14:00,32.2,31.5,30.36,NNE,24,0.0,0.0,97,0.00,,,0.00,VWS V14.01,2013-01-18 05:14:00,
2013-01-18 00:19:00,32.2,31.5,30.36,NNE,24,0.0,0.0,97,0.00,,,0.00,VWS V14.01,2013-01-18 05:19:00,
2013-01-18 00:25:00,32.2,31.5,30.36,NNE,24,0.0,0.0,97,0.00,,,0.00,VWS V14.01,2013-01-18 05:25:00,
2013-01-18 00:31:00,32.2,31.5,30.38,NNE,24,0.0,0.0,97,0.00,,,0.00,VWS V14.01,2013-01-18 05:31:00,
2013-01-18 00:37:00,32.2,31.5,30.37,NNE,24,0.0,0.0,97,0.00,,,0.00,VWS V14.01,2013-01-18 05:37:00,
2013-01-18 00:43:00,32.2,31.5,30.37,NNE,24,0.0,0.0,97,0.00,,,0.00,VWS V14.01,2013-01-18 05:43:00,
2013-01-18 00:49:00,32.2,31.5,30.38,NNE,24,0.0,0.0,97,0.00,,,0.00,VWS V14.01,2013-01-18 05:49:00,
2013-01-18 00:55:00,32.2,31.5,30.38,NNE,24,0.0,0.0,97,0.00,,,0.00,VWS V14.01,2013-01-18 05:55:00,
2013-01-18 01:00:00,32.2,31.5,30.37,North,0,0.0,0.0,97,0.00,,,0.00,VWS V14.01,2013-01-18 06:00:00,
2013-01-18 01:30:00,31.8,31.0,30.41,North,0,0.0,0.0,97,0.00,,,0.00,VWS V14.01,2013-01-18 06:30:00,
2013-01-18 02:00:00,31.7,31.0,30.41,North,0,0.0,0.0,97,0.00,,,0.00,VWS V14.01,2013-01-18 07:00:00,
2013-01-18 02:30:00,31.4,30.6,30.42,North,0,0.0,0.0,97,0.00,,,0.00,VWS V14.01,2013-01-18 07:30:00,
2013-01-18 03:00:00,31.7,31.0,30.44,NNE,22,0.0,1.0,97,0.00,,,0.00,VWS V14.01,2013-01-18 08:00:00,
2013-01-18 03:30:00,31.6,30.9,30.44,NNE,22,0.0,0.0,97,0.00,,,0.00,VWS V14.01,2013-01-18 08:30:00,
2013-01-18 04:00:00,31.1,30.4,30.45,NNE,22,0.0,0.0,97,0.00,,,0.00,VWS V14.01,2013-01-18 09:00:00,
2013-01-18 04:30:00,30.5,29.8,30.46,NNE,22,0.0,0.0,97,0.00,,,0.00,VWS V14.01,2013-01-18 09:30:00,
2013-01-18 05:00:00,30.2,29.5,30.47,NNE,22,0.0,0.0,97,0.00,,,0.00,VWS V14.01,2013-01-18 10:00:00,
2013-01-18 05:30:00,30.3,29.5,30.49,NNE,22,0.0,0.0,97,0.00,,,0.00,VWS V14.01,2013-01-18 10:30:00,
2013-01-18 06:00:00,30.0,29.2,30.51,NNE,22,0.0,0.0,97,0.00,,,0.00,VWS V14.01,2013-01-18 11:00:00,
2013-01-18 06:30:00,29.3,28.6,30.54,NNE,22,0.0,0.0,97,0.00,,,0.00,VWS V14.01,2013-01-18 11:30:00,
2013-01-18 07:00:00,28.3,27.6,30.55,NNE,22,0.0,0.0,97,0.00,,,0.00,VWS V14.01,2013-01-18 12:00:00,
2013-01-18 07:30:00,27.5,26.8,30.57,NNE,22,0.0,0.0,97,0.00,,,0.00,VWS V14.01,2013-01-18 12:30:00,
2013-01-18 08:00:00,26.8,26.1,30.60,NNE,22,0.0,0.0,97,0.00,,,0.00,VWS V14.01,2013-01-18 13:00:00,
2013-01-18 08:30:00,27.6,26.9,30.61,NNE,22,0.0,0.0,97,0.00,,,0.00,VWS V14.01,2013-01-18 13:30:00,
2013-01-18 09:00:00,30.5,30.0,30.64,NNE,22,0.0,0.0,98,0.00,,,0.00,VWS V14.01,2013-01-18 14:00:00,
2013-01-18 09:30:00,32.9,32.4,30.67,NNE,22,0.0,0.0,98,0.00,,,0.00,VWS V14.01,2013-01-18 14:30:00,
2013-01-18 10:00:00,34.6,32.8,30.68,West,270,0.0,1.0,93,0.03,,,0.03,VWS V14.01,2013-01-18 15:00:00,
2013-01-18 10:30:00,35.8,32.0,30.68,NE,45,0.0,5.0,86,0.08,,,0.08,VWS V14.01,2013-01-18 15:30:00,
2013-01-18 11:00:00,36.9,31.0,30.69,NE,45,1.0,7.0,79,0.15,,,0.15,VWS V14.01,2013-01-18 16:00:00,
2013-01-18 11:30:00,37.9,31.0,30.70,NNE,22,3.0,11.0,76,0.17,,,0.20,VWS V14.01,2013-01-18 16:30:00,
2013-01-18 12:00:00,38.8,29.9,30.69,NNE,22,2.0,9.0,70,0.18,,,0.26,VWS V14.01,2013-01-18 17:00:00,
2013-01-18 12:30:00,39.2,30.2,30.69,NE,45,2.0,7.0,70,0.15,,,0.30,VWS V14.01,2013-01-18 17:30:00,
2013-01-18 13:00:00,39.7,29.7,30.68,NE,45,2.0,9.0,67,0.14,,,0.34,VWS V14.01,2013-01-18 18:00:00,
2013-01-18 13:30:00,40.7,29.1,30.68,NNE,22,1.0,7.0,63,0.10,,,0.36,VWS V14.01,2013-01-18 18:30:00,
2013-01-18 14:00:00,41.1,28.3,30.69,NNE,22,2.0,10.0,60,0.08,,,0.38,VWS V14.01,2013-01-18 19:00:00,
2013-01-18 14:30:00,42.0,27.9,30.69,NNE,22,1.0,5.0,57,0.05,,,0.39,VWS V14.01,2013-01-18 19:30:00,
2013-01-18 15:00:00,42.1,29.2,30.68,NE,45,2.0,7.0,60,0.04,,,0.40,VWS V14.01,2013-01-18 20:00:00,
2013-01-18 15:30:00,42.2,29.3,30.68,NE,45,0.0,6.0,60,0.02,,,0.40,VWS V14.01,2013-01-18 20:30:00,
2013-01-18 16:00:00,41.6,27.9,30.69,NNE,22,1.0,6.0,58,0.01,,,0.40,VWS V14.01,2013-01-18 21:00:00,
2013-01-18 16:30:00,40.9,28.9,30.70,NE,45,0.0,4.0,62,0.00,,,0.40,VWS V14.01,2013-01-18 21:30:00,
2013-01-18 17:00:00,39.6,29.9,30.71,NE,45,0.0,3.0,68,0.00,,,0.40,VWS V14.01,2013-01-18 22:00:00,
2013-01-18 17:30:00,37.8,30.9,30.72,NE,45,0.0,0.0,76,0.00,,,0.40,VWS V14.01,2013-01-18 22:30:00,
2013-01-18 18:00:00,35.1,29.9,30.72,NE,45,0.0,0.0,81,0.00,,,0.40,VWS V14.01,2013-01-18 23:00:00,
2013-01-18 18:30:00,33.1,28.8,30.73,NE,45,0.0,0.0,84,0.00,,,0.40,VWS V14.01,2013-01-18 23:30:00,
2013-01-18 19:00:00,31.4,28.0,30.73,NE,45,0.0,1.0,87,0.00,,,0.40,VWS V14.01,2013-01-19 00:00:00,
2013-01-18 19:30:00,30.2,27.4,30.73,NE,45,0.0,0.0,89,0.00,,,0.40,VWS V14.01,2013-01-19 00:30:00,
2013-01-18 20:00:00,29.3,26.7,30.73,NE,45,0.0,0.0,90,0.00,,,0.40,VWS V14.01,2013-01-19 01:00:00,
2013-01-18 20:30:00,28.8,26.5,30.73,NE,45,0.0,0.0,91,0.00,,,0.40,VWS V14.01,2013-01-19 01:30:00,
2013-01-18 21:00:00,28.3,26.3,30.73,NE,45,0.0,0.0,92,0.00,,,0.40,VWS V14.01,2013-01-19 02:00:00,
2013-01-18 21:30:00,27.9,25.9,30.73,NE,45,0.0,0.0,92,0.00,,,0.40,VWS V14.01,2013-01-19 02:30:00,
2013-01-18 22:00:00,27.6,25.6,30.72,NE,45,0.0,0.0,92,0.00,,,0.40,VWS V14.01,2013-01-19 03:00:00,
2013-01-18 22:30:00,27.3,25.5,30.72,NE,45,0.0,0.0,93,0.00,,,0.40,VWS V14.01,2013-01-19 03:30:00,
2013-01-18 23:00:00,26.9,25.1,30.72,NE,45,0.0,0.0,93,0.00,,,0.40,VWS V14.01,2013-01-19 04:00:00,
2013-01-18 23:30:00,26.4,24.6,30.72,NE,45,0.0,0.0,93,0.00,,,0.40,VWS V14.01,2013-01-19 04:30:00,